createdAt,value
2023-04-19T00:02:21.419Z,97725.78
2023-04-19T00:04:50.356Z,97720.69
2023-04-19T00:07:20.759Z,97720.47
2023-04-19T00:09:49.580Z,97710.25
2023-04-19T00:12:18.254Z,97721.91
2023-04-19T00:14:46.844Z,97715.91
2023-04-19T00:17:15.705Z,97707.38
2023-04-19T00:19:44.929Z,97714.19
2023-04-19T00:22:13.366Z,97707.69
2023-04-19T00:24:43.453Z,97696.94
2023-04-19T00:27:12.030Z,97697.94
2023-04-19T00:29:41.016Z,97695.75
2023-04-19T00:32:09.968Z,97702.59
2023-04-19T00:34:38.931Z,97678.63
2023-04-19T00:37:07.302Z,97665.72
2023-04-19T00:39:35.972Z,97666.25
2023-04-19T00:42:08.023Z,97685.09
2023-04-19T00:44:36.524Z,97669.59
2023-04-19T00:47:04.955Z,97667.59
2023-04-19T00:49:33.630Z,97659.56
2023-04-19T00:52:02.297Z,97649.06
2023-04-19T00:54:31.606Z,97652.28
2023-04-19T00:57:00.489Z,97636.78
2023-04-19T00:59:32.571Z,97638.84
2023-04-19T01:02:01.734Z,97637.28
2023-04-19T01:04:31.568Z,97631.59
2023-04-19T01:07:00.968Z,97629.22
2023-04-19T01:09:30.005Z,97628.56
2023-04-19T01:11:59.226Z,97639.63
2023-04-19T01:14:28.800Z,97638.03
2023-04-19T01:16:58.645Z,97640.78
2023-04-19T01:19:28.648Z,97633.78
2023-04-19T01:21:58.524Z,97645.50
2023-04-19T01:24:29.353Z,97649.00
2023-04-19T01:26:57.784Z,97636.03
2023-04-19T01:29:27.041Z,97635.28
2023-04-19T01:31:55.306Z,97644.75
2023-04-19T01:34:24.603Z,97630.72
2023-04-19T01:36:53.260Z,97637.44
2023-04-19T01:39:21.869Z,97616.53
2023-04-19T01:41:51.866Z,97632.63
2023-04-19T01:44:20.940Z,97636.97
2023-04-19T01:46:49.466Z,97621.47
2023-04-19T01:49:18.662Z,97633.94
2023-04-19T01:51:48.335Z,97613.50
2023-04-19T01:54:17.018Z,97613.69
2023-04-19T01:56:45.724Z,97613.13
2023-04-19T01:59:15.604Z,97634.69
2023-04-19T02:01:43.911Z,97629.00
2023-04-19T02:04:13.153Z,97621.44
2023-04-19T02:06:41.971Z,97631.16
2023-04-19T02:09:11.497Z,97625.03
2023-04-19T02:11:43.018Z,97628.16
2023-04-19T02:14:11.874Z,97617.59
2023-04-19T02:16:41.988Z,97622.09
2023-04-19T02:19:11.958Z,97616.47
2023-04-19T02:21:40.847Z,97617.00
2023-04-19T02:24:10.572Z,97598.00
2023-04-19T02:26:39.117Z,97617.38
2023-04-19T02:29:07.811Z,97613.28
2023-04-19T02:31:38.115Z,97603.94
2023-04-19T02:34:08.348Z,97607.53
2023-04-19T02:36:37.195Z,97597.22
2023-04-19T02:39:06.290Z,97607.81
2023-04-19T02:41:34.577Z,97601.94
2023-04-19T02:44:04.108Z,97576.47
2023-04-19T02:46:33.177Z,97587.63
2023-04-19T02:49:02.482Z,97590.47
2023-04-19T02:51:33.842Z,97588.06
2023-04-19T02:54:03.213Z,97591.09
2023-04-19T02:56:32.235Z,97580.41
2023-04-19T02:59:02.627Z,97585.72
2023-04-19T03:01:32.503Z,97568.56
2023-04-19T03:04:03.862Z,97573.94
2023-04-19T03:06:34.103Z,97577.53
2023-04-19T03:09:04.395Z,97565.59
2023-04-19T03:11:33.060Z,97574.13
2023-04-19T03:14:04.232Z,97559.44
2023-04-19T03:16:34.229Z,97562.09
2023-04-19T03:19:03.136Z,97560.16
2023-04-19T03:21:38.988Z,97555.00
2023-04-19T03:24:07.987Z,97555.88
2023-04-19T03:26:39.519Z,97555.88
2023-04-19T03:29:08.930Z,97533.56
2023-04-19T03:31:44.293Z,97543.09
2023-04-19T03:34:14.650Z,97540.63
2023-04-19T03:36:47.638Z,97528.53
2023-04-19T03:39:16.313Z,97530.31
2023-04-19T03:41:48.829Z,97533.41
2023-04-19T03:44:34.444Z,97528.66
2023-04-19T03:47:06.351Z,97537.53
2023-04-19T03:49:41.476Z,97533.94
2023-04-19T03:52:12.181Z,97537.53
2023-04-19T03:54:40.874Z,97532.41
2023-04-19T03:57:19.336Z,97527.38
2023-04-19T03:59:48.716Z,97542.03
2023-04-19T04:02:17.838Z,97536.41
2023-04-19T04:04:46.951Z,97547.75
2023-04-19T04:07:17.272Z,97536.84
2023-04-19T04:09:47.465Z,97529.53
2023-04-19T04:12:16.355Z,97535.84
2023-04-19T04:14:45.014Z,97538.75
2023-04-19T04:17:14.804Z,97549.13
2023-04-19T04:19:43.398Z,97552.81
2023-04-19T04:22:13.814Z,97542.41
2023-04-19T04:24:45.244Z,97537.38
2023-04-19T04:27:24.483Z,97549.53
2023-04-19T04:29:57.525Z,97550.50
2023-04-19T04:32:26.267Z,97539.94
2023-04-19T04:35:00.561Z,97536.88
2023-04-19T04:37:45.661Z,97544.59
2023-04-19T04:40:16.508Z,97535.16
2023-04-19T04:42:45.835Z,97534.13
2023-04-19T04:45:18.682Z,97543.66
2023-04-19T04:47:47.964Z,97548.38
2023-04-19T04:50:18.583Z,97545.38
2023-04-19T04:52:48.888Z,97548.25
2023-04-19T04:55:25.124Z,97540.84
2023-04-19T04:57:55.277Z,97547.16
2023-04-19T05:00:31.638Z,97541.59
2023-04-19T05:03:05.602Z,97545.25
2023-04-19T05:05:39.415Z,97551.97
2023-04-19T05:08:08.956Z,97545.84
2023-04-19T05:10:41.103Z,97556.56
2023-04-19T05:13:10.589Z,97535.41
2023-04-19T05:15:40.382Z,97545.25
2023-04-19T05:18:10.470Z,97544.03
2023-04-19T05:20:40.219Z,97545.28
2023-04-19T05:23:18.737Z,97539.38
2023-04-19T05:25:49.091Z,97545.53
2023-04-19T05:28:17.916Z,97551.00
2023-04-19T05:31:00.781Z,97542.94
2023-04-19T05:33:34.697Z,97535.53
2023-04-19T05:36:04.710Z,97535.63
2023-04-19T05:38:33.315Z,97536.94
2023-04-19T05:41:06.934Z,97536.97
2023-04-19T05:43:36.687Z,97529.94
2023-04-19T05:46:06.233Z,97528.56
2023-04-19T05:48:36.021Z,97540.75
2023-04-19T05:51:14.568Z,97517.66
2023-04-19T05:54:03.602Z,97527.97
2023-04-19T05:56:39.739Z,97523.50
2023-04-19T05:59:08.549Z,97535.56
2023-04-19T06:01:38.070Z,97533.66
2023-04-19T06:04:07.377Z,97524.69
2023-04-19T06:06:38.359Z,97523.50
2023-04-19T06:09:08.835Z,97524.00
2023-04-19T06:11:50.017Z,97526.50
2023-04-19T06:14:20.924Z,97520.56
2023-04-19T06:16:49.561Z,97523.03
2023-04-19T06:19:18.336Z,97517.75
2023-04-19T06:21:47.965Z,97519.03
2023-04-19T06:24:17.040Z,97519.97
2023-04-19T06:26:50.297Z,97517.78
2023-04-19T06:29:21.691Z,97514.72
2023-04-19T06:31:50.436Z,97515.22
2023-04-19T06:34:19.117Z,97510.59
2023-04-19T06:36:48.440Z,97515.44
2023-04-19T06:39:16.963Z,97512.66
2023-04-19T06:41:47.407Z,97507.94
2023-04-19T06:44:19.403Z,97507.69
2023-04-19T06:46:48.975Z,97508.59
2023-04-19T06:49:17.524Z,97500.34
2023-04-19T06:51:45.982Z,97501.50
2023-04-19T06:54:14.617Z,97504.81
2023-04-19T06:56:45.934Z,97489.28
2023-04-19T06:59:16.967Z,97483.34
2023-04-19T07:01:45.881Z,97496.69
2023-04-19T07:04:16.145Z,97485.69
2023-04-19T07:06:44.764Z,97496.38
2023-04-19T07:09:13.919Z,97485.50
2023-04-19T07:11:42.351Z,97487.75
2023-04-19T07:14:11.769Z,97475.22
2023-04-19T07:16:43.128Z,97481.28
2023-04-19T07:19:11.666Z,97482.28
2023-04-19T07:21:40.375Z,97475.78
2023-04-19T07:24:09.434Z,97469.59
2023-04-19T07:26:37.735Z,97464.69
2023-04-19T07:29:06.230Z,97455.97
2023-04-19T07:31:34.654Z,97461.47
2023-04-19T07:34:04.739Z,97456.22
2023-04-19T07:36:35.184Z,97455.94
2023-04-19T07:39:03.633Z,97454.69
2023-04-19T07:41:32.343Z,97446.31
2023-04-19T07:44:00.857Z,97448.25
2023-04-19T07:46:29.444Z,97444.41
2023-04-19T07:48:57.757Z,97431.81
2023-04-19T07:51:27.915Z,97437.03
2023-04-19T07:53:56.246Z,97436.84
2023-04-19T07:56:27.984Z,97435.47
2023-04-19T07:59:07.357Z,97421.16
2023-04-19T08:01:38.775Z,97430.16
2023-04-19T08:04:08.592Z,97432.84
2023-04-19T08:06:40.869Z,97416.75
2023-04-19T08:09:09.515Z,97412.84
2023-04-19T08:11:38.426Z,97417.47
2023-04-19T08:14:15.222Z,97401.59
2023-04-19T08:17:21.942Z,97397.63
2023-04-19T08:19:45.589Z,97395.44
2023-04-19T08:22:16.263Z,97400.22
2023-04-19T08:24:44.820Z,97388.13
2023-04-19T08:27:13.228Z,97398.56
2023-04-19T08:29:41.732Z,97380.88
2023-04-19T08:32:10.434Z,97388.56
2023-04-19T08:34:40.104Z,97383.63
2023-04-19T08:37:08.932Z,97386.50
2023-04-19T08:39:38.945Z,97377.59
2023-04-19T08:42:18.340Z,97371.78
2023-04-19T08:45:25.536Z,97374.03
2023-04-19T08:47:59.433Z,97361.03
2023-04-19T08:53:15.708Z,97363.47
2023-04-19T08:56:08.817Z,97357.41
2023-04-19T08:58:58.000Z,97358.53
2023-04-19T09:01:34.508Z,97359.22
2023-04-19T09:04:26.318Z,97358.31
2023-04-19T09:06:54.570Z,97349.03
2023-04-19T09:09:35.512Z,97359.66
2023-04-19T09:12:18.933Z,97350.09
2023-04-19T09:17:19.960Z,97349.81
2023-04-19T09:19:48.866Z,97342.78
2023-04-19T09:22:17.932Z,97340.97
2023-04-19T09:25:22.675Z,97344.06
2023-04-19T09:27:37.771Z,97329.22
2023-04-19T09:30:12.720Z,97338.25
2023-04-19T09:32:49.038Z,97333.50
2023-04-19T09:35:18.340Z,97331.59
2023-04-19T09:40:31.882Z,97325.19
2023-04-19T09:45:42.627Z,97320.00
2023-04-19T09:48:12.148Z,97315.66
2023-04-19T09:50:59.737Z,97314.81
2023-04-19T09:53:34.730Z,97315.09
2023-04-19T09:56:05.500Z,97308.97
2023-04-19T09:58:46.847Z,97311.91
2023-04-19T10:01:20.330Z,97301.97
2023-04-19T10:03:51.497Z,97311.69
2023-04-19T10:08:56.188Z,97312.44
2023-04-19T10:11:28.089Z,97323.56
2023-04-19T10:14:01.326Z,97308.72
2023-04-19T10:16:32.724Z,97311.53
2023-04-19T10:19:02.506Z,97301.22
2023-04-19T10:21:31.908Z,97300.59
2023-04-19T10:24:01.001Z,97307.91
2023-04-19T10:26:29.764Z,97311.03
2023-04-19T10:28:59.647Z,97297.50
2023-04-19T10:31:28.561Z,97298.44
2023-04-19T10:33:57.980Z,97299.13
2023-04-19T10:36:29.034Z,97293.63
2023-04-19T10:38:57.752Z,97305.47
2023-04-19T10:41:46.240Z,97306.06
2023-04-19T10:44:16.484Z,97320.34
2023-04-19T10:46:45.015Z,97304.75
2023-04-19T10:49:13.762Z,97317.88
2023-04-19T10:51:48.871Z,97315.38
2023-04-19T10:54:31.798Z,97315.66
2023-04-19T10:57:05.680Z,97331.34
2023-04-19T10:59:36.892Z,97327.88
2023-04-19T11:02:06.974Z,97335.41
2023-04-19T11:05:04.534Z,97344.31
2023-04-19T11:07:41.179Z,97346.63
2023-04-19T11:10:11.817Z,97349.25
2023-04-19T11:12:45.013Z,97340.81
2023-04-19T11:15:14.894Z,97329.34
2023-04-19T11:17:43.253Z,97353.19
2023-04-19T11:20:14.823Z,97353.66
2023-04-19T11:22:44.628Z,97333.72
2023-04-19T11:25:14.815Z,97342.78
2023-04-19T11:27:44.496Z,97330.03
2023-04-19T11:30:16.900Z,97327.09
2023-04-19T11:32:49.773Z,97333.84
2023-04-19T11:35:21.795Z,97333.63
2023-04-19T11:37:50.973Z,97329.94
2023-04-19T11:40:21.354Z,97320.97
2023-04-19T11:43:00.368Z,97326.53
2023-04-19T11:45:35.577Z,97327.06
2023-04-19T11:48:08.329Z,97316.44
2023-04-19T11:50:41.655Z,97324.69
2023-04-19T11:53:18.132Z,97316.59
2023-04-19T11:55:47.999Z,97326.31
2023-04-19T11:58:29.299Z,97314.66
2023-04-19T12:01:04.334Z,97311.94
2023-04-19T12:03:33.190Z,97318.97
2023-04-19T12:06:04.398Z,97312.69
2023-04-19T12:08:34.810Z,97311.03
2023-04-19T12:11:04.618Z,97303.66
2023-04-19T12:13:33.778Z,97307.47
2023-04-19T12:16:04.688Z,97309.72
2023-04-19T12:18:50.184Z,97305.84
2023-04-19T12:21:29.350Z,97301.53
2023-04-19T12:23:58.986Z,97309.44
2023-04-19T12:26:30.047Z,97302.63
2023-04-19T12:28:59.788Z,97291.25
2023-04-19T12:31:30.018Z,97304.91
2023-04-19T12:33:58.491Z,97303.81
2023-04-19T12:36:27.826Z,97285.47
2023-04-19T12:38:56.354Z,97289.38
2023-04-19T12:41:24.892Z,97298.59
2023-04-19T12:43:53.184Z,97302.56
2023-04-19T12:46:21.788Z,97290.81
2023-04-19T12:48:51.514Z,97281.00
2023-04-19T12:51:20.127Z,97294.09
2023-04-19T12:53:50.601Z,97290.34
2023-04-19T12:56:19.312Z,97293.88
2023-04-19T12:58:47.679Z,97285.38
2023-04-19T13:01:16.401Z,97287.75
2023-04-19T13:03:45.153Z,97283.41
2023-04-19T13:06:17.068Z,97287.94
2023-04-19T13:08:47.692Z,97295.84
2023-04-19T13:11:17.964Z,97277.44
2023-04-19T13:13:46.476Z,97284.91
2023-04-19T13:16:14.899Z,97280.88
2023-04-19T13:18:43.562Z,97290.78
2023-04-19T13:21:11.942Z,97291.41
2023-04-19T13:23:41.939Z,97275.88
2023-04-19T13:26:10.815Z,97268.06
2023-04-19T13:28:40.196Z,97276.91
2023-04-19T13:31:08.811Z,97267.94
2023-04-19T13:33:37.128Z,97277.88
2023-04-19T13:36:06.172Z,97278.09
2023-04-19T13:38:35.137Z,97276.56
2023-04-19T13:41:06.145Z,97274.50
2023-04-19T13:43:34.605Z,97261.56
2023-04-19T13:46:03.140Z,97257.63
2023-04-19T13:48:31.588Z,97263.50
2023-04-19T13:51:00.964Z,97260.06
2023-04-19T13:53:29.900Z,97260.94
2023-04-19T13:55:58.677Z,97259.00
2023-04-19T13:58:28.466Z,97258.03
2023-04-19T14:00:57.013Z,97257.50
2023-04-19T14:03:26.068Z,97241.94
2023-04-19T14:05:54.754Z,97251.38
2023-04-19T14:08:23.344Z,97252.28
2023-04-19T14:10:52.171Z,97244.75
2023-04-19T14:13:20.809Z,97246.69
2023-04-19T14:15:50.839Z,97237.13
2023-04-19T14:18:19.344Z,97244.31
2023-04-19T14:20:48.148Z,97251.91
2023-04-19T14:23:16.615Z,97238.75
2023-04-19T14:25:45.007Z,97236.88
2023-04-19T14:28:13.625Z,97229.88
2023-04-19T14:30:42.207Z,97226.16
2023-04-19T14:33:12.503Z,97235.31
2023-04-19T14:35:43.016Z,97228.69
2023-04-19T14:38:11.895Z,97239.88
2023-04-19T14:40:40.616Z,97240.16
2023-04-19T14:43:09.053Z,97234.19
2023-04-19T14:45:37.331Z,97247.22
2023-04-19T14:48:06.574Z,97243.47
2023-04-19T14:50:36.544Z,97248.25
2023-04-19T14:53:05.014Z,97242.59
2023-04-19T14:55:33.582Z,97238.75
2023-04-19T14:58:02.065Z,97250.88
2023-04-19T15:00:30.433Z,97251.50
2023-04-19T15:02:59.006Z,97247.50
2023-04-19T15:05:28.660Z,97248.88
2023-04-19T15:07:58.644Z,97244.91
2023-04-19T15:10:27.224Z,97252.94
2023-04-19T15:12:58.154Z,97236.53
2023-04-19T15:15:27.012Z,97243.47
2023-04-19T15:17:55.872Z,97244.88
2023-04-19T15:20:24.273Z,97254.22
2023-04-19T15:22:52.643Z,97260.16
2023-04-19T15:25:22.684Z,97256.75
2023-04-19T15:27:51.315Z,97263.72
2023-04-19T15:30:19.975Z,97263.44
2023-04-19T15:32:48.425Z,97275.78
2023-04-19T15:35:16.888Z,97272.06
2023-04-19T15:37:46.502Z,97282.47
2023-04-19T15:40:17.166Z,97292.41
2023-04-19T15:42:47.531Z,97301.88
2023-04-19T15:45:16.286Z,97296.66
2023-04-19T15:47:44.668Z,97311.22
2023-04-19T15:50:13.095Z,97305.78
2023-04-19T15:52:41.461Z,97305.69
2023-04-19T15:55:10.055Z,97311.75
2023-04-19T15:57:38.384Z,97316.16
2023-04-19T16:00:09.621Z,97320.19
2023-04-19T16:02:41.291Z,97314.16
2023-04-19T16:05:10.525Z,97324.44
2023-04-19T16:07:38.917Z,97328.97
2023-04-19T16:10:08.310Z,97321.88
2023-04-19T16:12:36.804Z,97326.13
2023-04-19T16:15:06.036Z,97320.59
2023-04-19T16:17:35.766Z,97326.50
2023-04-19T16:20:04.792Z,97329.91
2023-04-19T16:22:33.201Z,97321.19
2023-04-19T16:25:01.675Z,97323.91
2023-04-19T16:27:30.115Z,97329.63
2023-04-19T16:29:58.564Z,97324.75
2023-04-19T16:32:27.353Z,97327.50
2023-04-19T16:34:57.175Z,97327.34
2023-04-19T16:37:25.851Z,97332.75
2023-04-19T16:39:54.608Z,97338.34
2023-04-19T16:42:22.943Z,97331.22
2023-04-19T16:44:51.346Z,97329.84
2023-04-19T16:47:19.881Z,97335.63
2023-04-19T16:49:49.678Z,97351.50
2023-04-19T16:52:20.005Z,97342.03
2023-04-19T16:54:48.560Z,97341.88
2023-04-19T16:57:17.596Z,97341.00
2023-04-19T16:59:46.443Z,97344.13
2023-04-19T17:02:15.000Z,97346.78
2023-04-19T17:04:43.731Z,97344.53
2023-04-19T17:07:12.586Z,97343.22
2023-04-19T17:09:42.452Z,97335.28
2023-04-19T17:12:10.915Z,97355.03
2023-04-19T17:14:40.619Z,97359.94
2023-04-19T17:17:09.401Z,97359.94
2023-04-19T17:19:39.013Z,97351.47
2023-04-19T17:22:08.027Z,97355.34
2023-04-19T17:24:36.719Z,97358.91
2023-04-19T17:27:07.036Z,97365.34
2023-04-19T17:29:36.353Z,97365.34
2023-04-19T17:32:06.315Z,97364.59
2023-04-19T17:34:36.579Z,97368.28
2023-04-19T17:37:06.457Z,97362.22
2023-04-19T17:39:36.013Z,97372.34
2023-04-19T17:42:06.025Z,97364.00
2023-04-19T17:44:37.650Z,97370.16
2023-04-19T17:47:08.674Z,97370.25
2023-04-19T17:49:37.867Z,97372.91
2023-04-19T17:52:07.122Z,97377.63
2023-04-19T17:54:37.130Z,97380.09
2023-04-19T17:57:07.264Z,97374.31
2023-04-19T17:59:38.608Z,97383.28
2023-04-19T18:02:10.515Z,97391.41
2023-04-19T18:04:44.970Z,97383.75
2023-04-19T18:07:14.469Z,97385.25
2023-04-19T18:09:43.771Z,97395.75
2023-04-19T18:12:16.880Z,97401.03
2023-04-19T18:14:47.528Z,97393.47
2023-04-19T18:17:16.589Z,97413.78
2023-04-19T18:19:45.882Z,97413.22
2023-04-19T18:22:15.196Z,97423.69
2023-04-19T18:24:47.315Z,97429.72
2023-04-19T18:27:17.269Z,97438.59
2023-04-19T18:29:55.843Z,97438.81
2023-04-19T18:32:29.318Z,97452.59
2023-04-19T18:34:58.741Z,97455.53
2023-04-19T18:37:28.313Z,97443.09
2023-04-19T18:39:59.276Z,97453.28
2023-04-19T18:42:29.490Z,97460.09
2023-04-19T18:45:01.168Z,97456.31
2023-04-19T18:47:31.799Z,97462.56
2023-04-19T18:50:05.938Z,97472.78
2023-04-19T18:52:37.843Z,97467.94
2023-04-19T18:55:07.838Z,97469.16
2023-04-19T18:57:39.048Z,97474.25
2023-04-19T19:00:13.115Z,97477.81
2023-04-19T19:02:46.667Z,97481.41
2023-04-19T19:05:17.403Z,97492.78
2023-04-19T19:07:49.485Z,97485.78
2023-04-19T19:10:22.495Z,97492.97
2023-04-19T19:12:56.700Z,97485.53
2023-04-19T19:15:29.871Z,97493.69
2023-04-19T19:18:00.472Z,97496.25
2023-04-19T19:20:30.969Z,97496.97
2023-04-19T19:23:03.167Z,97502.41
2023-04-19T19:25:34.433Z,97512.06
2023-04-19T19:28:08.216Z,97506.00
2023-04-19T19:30:43.604Z,97506.34
2023-04-19T19:33:17.173Z,97514.78
2023-04-19T19:35:46.657Z,97511.28
2023-04-19T19:38:18.179Z,97505.59
2023-04-19T19:43:24.717Z,97503.47
2023-04-19T19:45:58.172Z,97495.44
2023-04-19T19:48:30.754Z,97504.47
2023-04-19T19:53:37.699Z,97509.75
2023-04-19T19:56:16.462Z,97512.75
2023-04-19T19:58:52.207Z,97514.19
2023-04-19T20:01:23.442Z,97508.88
2023-04-19T20:03:53.660Z,97517.44
2023-04-19T20:07:15.630Z,97505.16
2023-04-19T20:09:13.924Z,97520.75
2023-04-19T20:11:47.144Z,97513.00
2023-04-19T20:14:17.400Z,97515.22
2023-04-19T20:16:49.734Z,97520.94
2023-04-19T20:19:20.051Z,97521.66
2023-04-19T20:21:49.650Z,97525.94
2023-04-19T20:24:22.093Z,97523.38
2023-04-19T20:26:51.558Z,97522.72
2023-04-19T20:29:21.396Z,97527.28
2023-04-19T20:31:52.459Z,97530.00
2023-04-19T20:34:21.933Z,97530.78
2023-04-19T20:36:52.386Z,97521.34
2023-04-19T20:39:22.525Z,97526.44
2023-04-19T20:41:52.381Z,97535.47
2023-04-19T20:44:21.774Z,97536.16
2023-04-19T20:46:53.961Z,97532.72
2023-04-19T20:49:23.867Z,97538.00
2023-04-19T20:51:53.484Z,97533.69
2023-04-19T20:54:22.909Z,97536.34
2023-04-19T20:56:54.931Z,97524.91
2023-04-19T20:59:24.169Z,97530.19
2023-04-19T21:01:54.018Z,97535.28
2023-04-19T21:04:22.622Z,97539.97
2023-04-19T21:06:51.345Z,97538.19
2023-04-19T21:09:20.117Z,97543.41
2023-04-19T21:11:48.511Z,97522.13
2023-04-19T21:14:16.937Z,97540.06
2023-04-19T21:16:45.309Z,97537.19
2023-04-19T21:19:15.571Z,97526.34
2023-04-19T21:21:44.081Z,97536.81
2023-04-19T21:24:12.374Z,97538.34
2023-04-19T21:26:40.704Z,97547.91
2023-04-19T21:29:09.168Z,97538.44
2023-04-19T21:31:37.733Z,97548.63
2023-04-19T21:34:06.343Z,97539.66
2023-04-19T21:36:36.045Z,97539.53
2023-04-19T21:39:04.857Z,97545.81
2023-04-19T21:41:33.126Z,97533.59
2023-04-19T21:44:01.494Z,97530.94
2023-04-19T21:46:29.845Z,97545.22
2023-04-19T21:48:58.177Z,97548.06
2023-04-19T21:51:26.593Z,97540.06
2023-04-19T21:53:56.258Z,97543.50
2023-04-19T21:56:24.517Z,97545.13
2023-04-19T21:58:52.912Z,97541.00
2023-04-19T22:01:21.117Z,97542.38
2023-04-19T22:03:49.690Z,97537.06
2023-04-19T22:06:19.346Z,97533.47
2023-04-19T22:08:48.553Z,97538.16
2023-04-19T22:11:18.657Z,97542.19
2023-04-19T22:13:47.178Z,97546.84
2023-04-19T22:16:15.804Z,97545.28
2023-04-19T22:18:44.315Z,97550.69
2023-04-19T22:21:12.729Z,97540.78
2023-04-19T22:23:41.105Z,97550.09
2023-04-19T22:26:09.433Z,97546.00
2023-04-19T22:28:39.174Z,97540.47
2023-04-19T22:31:07.594Z,97554.44
2023-04-19T22:33:35.937Z,97550.22
2023-04-19T22:36:04.194Z,97542.88
2023-04-19T22:38:32.505Z,97539.16
2023-04-19T22:41:01.156Z,97546.00
2023-04-19T22:43:29.582Z,97533.00
2023-04-19T22:45:59.451Z,97536.13
2023-04-19T22:48:30.270Z,97540.31
2023-04-19T22:50:59.299Z,97533.31
2023-04-19T22:53:30.725Z,97521.41
2023-04-19T22:55:59.198Z,97528.34
2023-04-19T22:58:27.502Z,97521.56
2023-04-19T23:00:55.884Z,97521.88
2023-04-19T23:03:25.825Z,97520.31
2023-04-19T23:05:54.555Z,97522.63
2023-04-19T23:08:23.447Z,97518.06
2023-04-19T23:10:52.151Z,97519.69
2023-04-19T23:13:20.505Z,97516.91
2023-04-19T23:15:49.715Z,97520.16
2023-04-19T23:18:18.635Z,97514.88
2023-04-19T23:20:48.439Z,97504.97
2023-04-19T23:23:16.830Z,97524.19
2023-04-19T23:25:45.121Z,97516.59
2023-04-19T23:28:13.311Z,97509.31
2023-04-19T23:30:41.928Z,97518.00
2023-04-19T23:33:10.548Z,97512.63
2023-04-19T23:35:38.899Z,97513.97
2023-04-19T23:38:08.795Z,97512.25
2023-04-19T23:40:37.441Z,97504.41
2023-04-19T23:43:06.023Z,97507.53
2023-04-19T23:45:34.396Z,97515.19
2023-04-19T23:48:02.742Z,97498.69
2023-04-19T23:50:31.553Z,97509.78
2023-04-19T23:52:59.849Z,97498.38
2023-04-19T23:55:29.592Z,97495.81
2023-04-19T23:57:57.971Z,97487.97
